Kamysin, Russia
Current Conditions -  °F | °C
As of 2:00 PM on Sunday 23 Nov 2014 (Local Time) from URWW Reporting Station
Broken Clouds Broken Clouds  
Wind Chill: 18°   Ceiling: 2600
Heat Index: 28°   Visibility: 6mi
Dew Point: 23°   Wind: 13mph
Humidity: 80%   Direction: 340°NNW
Pressure: 30.24"   Gusts: NA
Location:  50.07°N, 45.37°E
Report Text: URWW 231100Z 34006MPS 9999 BKN026 M02/M05 Q1024 NOSIG RMK29CLRD70
Loading
Personal Weather Stations






























Interactive Weather Map New forecast layout! Learn more

10-Day Weather Forecast

Advertisements
Track Severe Weather on mobile